createdAt,value
2023-03-12T00:01:50.507Z,17.80
2023-03-12T00:04:36.567Z,18.77
2023-03-12T00:07:22.501Z,16.00
2023-03-12T00:10:08.595Z,9.33
2023-03-12T00:12:54.311Z,7.50
2023-03-12T00:15:39.795Z,8.23
2023-03-12T00:18:25.309Z,7.70
2023-03-12T00:21:10.986Z,10.97
2023-03-12T00:23:56.527Z,11.83
2023-03-12T00:26:42.254Z,11.23
2023-03-12T00:29:28.376Z,11.33
2023-03-12T00:32:14.550Z,9.27
2023-03-12T00:34:59.747Z,8.00
2023-03-12T00:37:45.458Z,7.10
2023-03-12T00:40:31.161Z,6.27
2023-03-12T00:43:17.182Z,7.80
2023-03-12T00:46:02.662Z,7.47
2023-03-12T00:48:48.211Z,8.20
2023-03-12T00:51:33.651Z,6.40
2023-03-12T00:54:18.823Z,6.13
2023-03-12T00:57:04.334Z,6.23
2023-03-12T00:59:50.512Z,5.90
2023-03-12T01:02:36.996Z,5.10
2023-03-12T01:05:24.094Z,4.60
2023-03-12T01:08:10.874Z,3.87
2023-03-12T01:10:56.435Z,3.50
2023-03-12T01:13:43.389Z,3.40
2023-03-12T01:16:29.604Z,2.73
2023-03-12T01:19:15.066Z,2.90
2023-03-12T01:22:00.287Z,2.73
2023-03-12T01:24:46.473Z,2.53
2023-03-12T01:27:31.931Z,2.70
2023-03-12T01:30:17.656Z,2.53
2023-03-12T01:33:03.383Z,3.00
2023-03-12T01:35:49.216Z,2.40
2023-03-12T01:38:35.295Z,2.73
2023-03-12T01:41:21.944Z,2.70
2023-03-12T01:44:08.141Z,2.60
2023-03-12T01:46:53.742Z,2.30
2023-03-12T01:49:42.319Z,2.70
2023-03-12T01:52:32.292Z,2.53
2023-03-12T01:55:18.690Z,2.50
2023-03-12T01:58:07.900Z,2.50
2023-03-12T02:00:53.891Z,2.67
2023-03-12T02:03:39.760Z,2.53
2023-03-12T02:06:36.974Z,2.70
2023-03-12T02:09:22.430Z,2.60
2023-03-12T02:12:09.162Z,2.80
2023-03-12T02:14:54.651Z,3.00
2023-03-12T02:17:40.558Z,2.80
2023-03-12T02:20:39.844Z,2.80
2023-03-12T02:23:56.499Z,2.73
2023-03-12T02:26:43.059Z,3.17
2023-03-12T02:29:31.840Z,2.90
2023-03-12T02:32:23.320Z,3.00
2023-03-12T02:35:10.075Z,3.00
2023-03-12T02:37:56.820Z,3.00
2023-03-12T02:40:47.578Z,2.80
2023-03-12T02:43:33.054Z,3.10
2023-03-12T02:46:18.473Z,3.03
2023-03-12T02:49:04.378Z,3.10
2023-03-12T02:51:50.022Z,2.67
2023-03-12T02:54:35.645Z,3.13
2023-03-12T02:57:20.948Z,2.87
2023-03-12T03:00:10.812Z,2.90
2023-03-12T03:02:57.999Z,2.90
2023-03-12T03:05:43.459Z,3.10
2023-03-12T03:08:28.598Z,3.20
2023-03-12T03:11:14.024Z,2.97
2023-03-12T03:13:59.464Z,2.97
2023-03-12T03:16:45.020Z,2.70
2023-03-12T03:19:30.721Z,2.97
2023-03-12T03:22:17.460Z,2.97
2023-03-12T03:25:03.247Z,2.73
2023-03-12T03:27:49.012Z,2.93
2023-03-12T03:30:34.547Z,3.00
2023-03-12T03:33:21.896Z,3.07
2023-03-12T03:36:08.712Z,3.07
2023-03-12T03:38:58.313Z,2.90
2023-03-12T03:41:43.828Z,3.20
2023-03-12T03:44:29.230Z,3.00
2023-03-12T03:47:14.804Z,3.23
2023-03-12T03:50:00.023Z,2.97
2023-03-12T03:52:45.440Z,2.90
2023-03-12T03:55:31.326Z,2.80
2023-03-12T03:58:16.710Z,3.03
2023-03-12T04:01:02.520Z,3.50
2023-03-12T04:03:47.945Z,3.10
2023-03-12T04:06:33.255Z,3.10
2023-03-12T04:09:18.839Z,2.97
2023-03-12T04:12:04.565Z,3.10
2023-03-12T04:14:50.271Z,2.97
2023-03-12T04:17:35.616Z,3.13
2023-03-12T04:20:21.487Z,3.10
2023-03-12T04:23:07.082Z,3.30
2023-03-12T04:25:52.140Z,2.70
2023-03-12T04:28:38.198Z,3.40
2023-03-12T04:31:23.496Z,3.00
2023-03-12T04:34:11.464Z,3.00
2023-03-12T04:37:01.489Z,3.13
2023-03-12T04:39:46.851Z,2.93
2023-03-12T04:42:35.242Z,3.23
2023-03-12T04:45:20.782Z,2.80
2023-03-12T04:48:06.264Z,3.10
2023-03-12T04:50:51.514Z,3.17
2023-03-12T04:53:37.114Z,2.93
2023-03-12T04:56:22.922Z,3.40
2023-03-12T04:59:08.071Z,3.67
2023-03-12T05:01:53.314Z,3.47
2023-03-12T05:04:43.338Z,4.03
2023-03-12T05:07:28.849Z,4.10
2023-03-12T05:10:13.999Z,4.33
2023-03-12T05:12:59.332Z,3.77
2023-03-12T05:15:45.988Z,4.20
2023-03-12T05:18:31.150Z,4.10
2023-03-12T05:21:19.096Z,4.50
2023-03-12T05:24:04.541Z,4.60
2023-03-12T05:26:50.239Z,4.87
2023-03-12T05:29:39.159Z,4.90
2023-03-12T05:32:25.150Z,5.17
2023-03-12T05:35:11.307Z,5.23
2023-03-12T05:37:58.153Z,5.30
2023-03-12T05:40:44.040Z,5.03
2023-03-12T05:43:29.391Z,5.40
2023-03-12T05:46:15.456Z,4.90
2023-03-12T05:49:00.868Z,4.70
2023-03-12T05:51:48.941Z,4.87
2023-03-12T05:54:34.113Z,5.30
2023-03-12T05:57:22.294Z,5.20
2023-03-12T06:00:08.648Z,5.00
2023-03-12T06:03:08.438Z,4.87
2023-03-12T06:05:54.063Z,4.90
2023-03-12T06:08:41.291Z,5.40
2023-03-12T06:11:27.233Z,5.20
2023-03-12T06:14:12.834Z,5.20
2023-03-12T06:16:58.321Z,5.10
2023-03-12T06:19:43.863Z,4.90
2023-03-12T06:22:28.980Z,5.00
2023-03-12T06:25:14.471Z,4.37
2023-03-12T06:27:59.943Z,4.57
2023-03-12T06:30:45.476Z,4.40
2023-03-12T06:33:31.356Z,3.80
2023-03-12T06:36:17.522Z,4.37
2023-03-12T06:39:03.721Z,3.80
2023-03-12T06:41:48.899Z,3.83
2023-03-12T06:44:34.508Z,3.90
2023-03-12T06:47:19.707Z,3.73
2023-03-12T06:50:05.523Z,3.90
2023-03-12T06:52:51.134Z,4.20
2023-03-12T06:55:36.155Z,4.50
2023-03-12T06:58:21.361Z,3.73
2023-03-12T07:01:06.589Z,4.27
2023-03-12T07:03:52.139Z,4.03
2023-03-12T07:06:37.792Z,4.40
2023-03-12T07:09:23.965Z,4.60
2023-03-12T07:12:09.631Z,8.10
2023-03-12T07:14:55.262Z,15.73
2023-03-12T07:17:43.607Z,11.67
2023-03-12T07:20:29.286Z,11.60
2023-03-12T07:23:14.714Z,10.23
2023-03-12T07:26:00.035Z,6.10
2023-03-12T07:28:45.718Z,4.50
2023-03-12T07:31:31.300Z,5.20
2023-03-12T07:34:16.579Z,4.73
2023-03-12T07:37:01.800Z,3.10
2023-03-12T07:39:47.513Z,2.60
2023-03-12T07:42:33.229Z,2.47
2023-03-12T07:45:18.943Z,1.90
2023-03-12T07:48:05.018Z,2.87
2023-03-12T07:50:50.872Z,2.30
2023-03-12T07:53:36.177Z,2.50
2023-03-12T07:56:21.529Z,2.30
2023-03-12T07:59:07.422Z,2.30
2023-03-12T08:01:52.925Z,2.40
2023-03-12T08:04:38.689Z,2.03
2023-03-12T08:07:23.819Z,2.00
2023-03-12T08:10:10.137Z,2.00
2023-03-12T08:12:55.550Z,1.70
2023-03-12T08:15:40.811Z,2.07
2023-03-12T08:18:26.202Z,2.00
2023-03-12T08:21:11.733Z,1.80
2023-03-12T08:23:56.931Z,2.20
2023-03-12T08:26:42.186Z,2.10
2023-03-12T08:29:27.804Z,2.03
2023-03-12T08:32:13.294Z,1.93
2023-03-12T08:34:59.943Z,1.87
2023-03-12T08:37:45.399Z,1.73
2023-03-12T08:40:31.331Z,1.67
2023-03-12T08:43:16.919Z,1.87
2023-03-12T08:46:03.175Z,1.70
2023-03-12T08:48:48.617Z,1.70
2023-03-12T08:51:33.652Z,1.90
2023-03-12T08:54:20.769Z,2.00
2023-03-12T08:57:06.306Z,1.50
2023-03-12T08:59:51.534Z,1.60
2023-03-12T09:02:37.835Z,2.07
2023-03-12T09:05:25.238Z,1.70
2023-03-12T09:08:11.702Z,1.87
2023-03-12T09:10:57.243Z,1.80
2023-03-12T09:14:33.450Z,1.90
2023-03-12T09:16:50.216Z,1.73
2023-03-12T09:19:35.529Z,1.87
2023-03-12T09:22:21.505Z,2.00
2023-03-12T09:25:08.921Z,1.93
2023-03-12T09:27:54.197Z,1.70
2023-03-12T09:30:40.368Z,1.60
2023-03-12T09:33:25.892Z,1.90
2023-03-12T09:36:11.471Z,1.90
2023-03-12T09:38:56.764Z,2.23
2023-03-12T09:41:45.798Z,2.03
2023-03-12T09:44:39.792Z,1.77
2023-03-12T09:47:46.510Z,1.97
2023-03-12T09:50:37.592Z,2.00
2023-03-12T09:53:48.312Z,2.20
2023-03-12T09:56:34.472Z,1.80
2023-03-12T09:59:19.870Z,1.90
2023-03-12T10:02:26.590Z,2.00
2023-03-12T10:05:36.676Z,2.00
2023-03-12T10:08:27.310Z,2.03
2023-03-12T10:11:45.441Z,2.37
2023-03-12T10:14:42.580Z,2.30
2023-03-12T10:17:49.492Z,2.20
2023-03-12T10:20:59.378Z,2.00
2023-03-12T10:23:52.182Z,2.30
2023-03-12T10:26:40.320Z,2.23
2023-03-12T10:29:31.493Z,2.50
2023-03-12T10:32:22.761Z,2.17
2023-03-12T10:35:23.186Z,2.37
2023-03-12T10:38:26.364Z,2.40
2023-03-12T10:41:16.943Z,2.10
2023-03-12T10:44:08.545Z,2.30
2023-03-12T10:47:15.524Z,2.10
2023-03-12T10:50:20.568Z,2.43
2023-03-12T10:53:22.151Z,2.50
2023-03-12T10:56:13.619Z,2.60
2023-03-12T10:58:59.311Z,2.50
2023-03-12T11:01:49.839Z,2.23
2023-03-12T11:04:35.213Z,2.70
2023-03-12T11:07:20.582Z,2.43
2023-03-12T11:10:05.790Z,2.57
2023-03-12T11:12:56.251Z,3.30
2023-03-12T11:15:43.382Z,2.50
2023-03-12T11:18:31.541Z,2.60
2023-03-12T11:21:18.205Z,2.53
2023-03-12T11:24:05.518Z,2.43
2023-03-12T11:26:57.226Z,2.67
2023-03-12T11:29:49.306Z,2.80
2023-03-12T11:32:39.538Z,2.40
2023-03-12T11:35:41.261Z,3.07
2023-03-12T11:38:34.866Z,2.80
2023-03-12T11:41:27.143Z,3.13
2023-03-12T11:44:48.821Z,3.03
2023-03-12T11:47:46.353Z,3.10
2023-03-12T11:51:05.725Z,2.60
2023-03-12T11:53:53.780Z,3.20
2023-03-12T11:56:45.158Z,3.13
2023-03-12T12:00:02.298Z,3.20
2023-03-12T12:03:24.745Z,3.23
2023-03-12T12:06:16.133Z,3.37
2023-03-12T12:09:28.471Z,3.73
2023-03-12T12:12:51.671Z,3.23
2023-03-12T12:15:48.070Z,3.57
2023-03-12T12:19:07.128Z,3.30
2023-03-12T12:21:55.521Z,3.20
2023-03-12T12:24:47.046Z,4.10
2023-03-12T12:27:41.573Z,4.10
2023-03-12T12:30:57.490Z,3.60
2023-03-12T12:33:50.599Z,3.63
2023-03-12T12:36:36.630Z,3.40
2023-03-12T12:39:40.081Z,3.67
2023-03-12T12:42:31.691Z,3.67
2023-03-12T12:45:17.483Z,3.73
2023-03-12T12:48:29.321Z,3.67
2023-03-12T12:51:19.511Z,3.93
2023-03-12T12:54:12.763Z,3.50
2023-03-12T12:57:15.509Z,3.87
2023-03-12T13:00:25.380Z,3.87
2023-03-12T13:03:23.652Z,3.53
2023-03-12T13:06:09.052Z,3.77
2023-03-12T13:08:54.510Z,4.10
2023-03-12T13:11:49.411Z,3.97
2023-03-12T13:14:38.808Z,3.93
2023-03-12T13:17:55.959Z,4.10
2023-03-12T13:21:01.591Z,3.57
2023-03-12T13:24:03.004Z,3.50
2023-03-12T13:27:02.615Z,3.87
2023-03-12T13:29:48.379Z,3.50
2023-03-12T13:32:59.568Z,3.90
2023-03-12T13:36:10.425Z,3.80
2023-03-12T13:39:30.780Z,3.87
2023-03-12T13:42:25.218Z,3.57
2023-03-12T13:45:26.096Z,3.40
2023-03-12T13:48:16.220Z,3.30
2023-03-12T13:51:16.508Z,3.83
2023-03-12T13:54:03.555Z,3.50
2023-03-12T13:57:04.447Z,3.80
2023-03-12T13:59:51.347Z,3.60
2023-03-12T14:02:43.757Z,3.87
2023-03-12T14:05:30.762Z,3.33
2023-03-12T14:08:34.552Z,3.20
2023-03-12T14:11:31.727Z,3.53
2023-03-12T14:14:32.994Z,3.70
2023-03-12T14:17:25.530Z,3.63
2023-03-12T14:20:20.353Z,3.33
2023-03-12T14:23:09.691Z,3.80
2023-03-12T14:26:02.317Z,3.53
2023-03-12T14:28:57.684Z,3.47
2023-03-12T14:31:43.945Z,3.50
2023-03-12T14:34:38.639Z,3.60
2023-03-12T14:37:32.582Z,3.70
2023-03-12T14:40:41.828Z,3.57
2023-03-12T14:43:35.148Z,3.17
2023-03-12T14:46:23.293Z,3.13
2023-03-12T14:49:19.288Z,2.90
2023-03-12T14:52:04.858Z,2.60
2023-03-12T14:54:54.317Z,3.00
2023-03-12T14:57:39.457Z,2.97
2023-03-12T15:00:27.472Z,3.30
2023-03-12T15:03:16.486Z,3.40
2023-03-12T15:06:01.715Z,3.30
2023-03-12T15:08:47.309Z,2.70
2023-03-12T15:11:35.860Z,3.00
2023-03-12T15:14:23.484Z,2.90
2023-03-12T15:17:17.545Z,3.27
2023-03-12T15:20:07.135Z,3.23
2023-03-12T15:22:54.057Z,3.07
2023-03-12T15:25:39.580Z,3.40
2023-03-12T15:28:27.233Z,2.90
2023-03-12T15:31:15.819Z,3.40
2023-03-12T15:34:04.720Z,3.50
2023-03-12T15:36:50.211Z,3.50
2023-03-12T15:39:38.244Z,3.20
2023-03-12T15:42:25.995Z,3.17
2023-03-12T15:45:29.611Z,3.37
2023-03-12T15:48:21.329Z,3.03
2023-03-12T15:51:30.821Z,3.53
2023-03-12T15:54:16.156Z,3.40
2023-03-12T15:57:22.143Z,4.03
2023-03-12T16:00:10.381Z,3.43
2023-03-12T16:02:57.281Z,3.80
2023-03-12T16:05:43.278Z,3.80
2023-03-12T16:08:56.762Z,3.97
2023-03-12T16:11:43.838Z,4.17
2023-03-12T16:14:34.948Z,4.07
2023-03-12T16:17:21.437Z,4.00
2023-03-12T16:20:09.446Z,4.13
2023-03-12T16:22:55.906Z,4.37
2023-03-12T16:25:45.961Z,3.90
2023-03-12T16:28:33.886Z,4.43
2023-03-12T16:31:19.078Z,4.10
2023-03-12T16:34:04.655Z,4.50
2023-03-12T16:36:50.274Z,4.93
2023-03-12T16:39:35.918Z,4.73
2023-03-12T16:42:21.366Z,5.17
2023-03-12T16:45:10.157Z,5.87
2023-03-12T16:48:00.228Z,5.13
2023-03-12T16:50:51.414Z,5.40
2023-03-12T16:53:36.694Z,5.63
2023-03-12T16:56:24.486Z,5.47
2023-03-12T16:59:28.273Z,5.60
2023-03-12T17:02:18.611Z,5.87
2023-03-12T17:05:04.334Z,5.77
2023-03-12T17:07:51.023Z,6.13
2023-03-12T17:10:36.446Z,5.97
2023-03-12T17:13:25.676Z,6.40
2023-03-12T17:16:12.749Z,6.67
2023-03-12T17:18:58.098Z,6.53
2023-03-12T17:21:44.570Z,7.07
2023-03-12T17:24:30.013Z,7.13
2023-03-12T17:27:15.626Z,7.40
2023-03-12T17:30:01.594Z,7.87
2023-03-12T17:32:46.701Z,7.57
2023-03-12T17:35:32.430Z,8.23
2023-03-12T17:38:17.613Z,7.63
2023-03-12T17:41:04.782Z,8.10
2023-03-12T17:43:51.272Z,7.70
2023-03-12T17:46:36.896Z,7.70
2023-03-12T17:49:22.429Z,7.40
2023-03-12T17:52:08.183Z,8.40
2023-03-12T17:54:53.575Z,8.00
2023-03-12T17:57:39.446Z,7.43
2023-03-12T18:00:24.955Z,8.17
2023-03-12T18:03:10.600Z,8.10
2023-03-12T18:05:55.997Z,8.47
2023-03-12T18:08:41.280Z,8.27
2023-03-12T18:11:26.654Z,8.17
2023-03-12T18:14:11.860Z,8.13
2023-03-12T18:16:57.319Z,8.47
2023-03-12T18:19:42.663Z,8.60
2023-03-12T18:22:28.162Z,8.40
2023-03-12T18:25:14.420Z,8.83
2023-03-12T18:27:59.698Z,9.13
2023-03-12T18:30:46.051Z,9.50
2023-03-12T18:33:31.298Z,9.03
2023-03-12T18:36:16.577Z,9.17
2023-03-12T18:39:01.959Z,8.83
2023-03-12T18:41:48.182Z,9.13
2023-03-12T18:44:33.364Z,9.13
2023-03-12T18:47:19.263Z,8.40
2023-03-12T18:50:07.912Z,9.47
2023-03-12T18:52:53.299Z,10.30
2023-03-12T18:55:38.427Z,9.37
2023-03-12T18:58:25.925Z,9.67
2023-03-12T19:01:11.413Z,8.90
2023-03-12T19:03:57.807Z,9.33
2023-03-12T19:06:51.213Z,9.60
2023-03-12T19:09:37.087Z,8.53
2023-03-12T19:12:22.399Z,9.10
2023-03-12T19:15:08.273Z,9.03
2023-03-12T19:17:53.782Z,9.10
2023-03-12T19:20:39.267Z,8.30
2023-03-12T19:23:24.921Z,8.43
2023-03-12T19:26:10.881Z,8.00
2023-03-12T19:28:56.148Z,8.17
2023-03-12T19:31:43.591Z,7.50
2023-03-12T19:34:29.331Z,6.87
2023-03-12T19:37:17.768Z,7.50
2023-03-12T19:40:04.030Z,7.13
2023-03-12T19:42:50.944Z,7.47
2023-03-12T19:45:36.776Z,6.90
2023-03-12T19:48:23.340Z,6.90
2023-03-12T19:51:10.790Z,6.57
2023-03-12T19:53:56.006Z,6.53
2023-03-12T19:56:41.377Z,6.50
2023-03-12T19:59:26.597Z,5.90
2023-03-12T20:02:14.639Z,6.07
2023-03-12T20:05:01.467Z,6.00
2023-03-12T20:07:47.207Z,6.17
2023-03-12T20:10:32.699Z,6.50
2023-03-12T20:13:17.972Z,6.10
2023-03-12T20:16:04.345Z,5.50
2023-03-12T20:18:50.088Z,6.33
2023-03-12T20:21:35.204Z,5.90
2023-03-12T20:24:20.429Z,5.77
2023-03-12T20:27:06.628Z,6.03
2023-03-12T20:29:51.819Z,5.80
2023-03-12T20:32:37.636Z,6.50
2023-03-12T20:35:23.324Z,6.13
2023-03-12T20:38:09.695Z,5.97
2023-03-12T20:40:55.108Z,8.63
2023-03-12T20:43:41.526Z,6.37
2023-03-12T20:46:27.181Z,9.60
2023-03-12T20:49:13.122Z,6.93
2023-03-12T20:51:58.630Z,7.00
2023-03-12T20:54:44.169Z,11.73
2023-03-12T20:57:29.315Z,6.90
2023-03-12T21:00:14.978Z,35.93
2023-03-12T21:03:00.183Z,22.33
2023-03-12T21:05:56.472Z,17.77
2023-03-12T21:08:41.649Z,57.33
2023-03-12T21:11:26.890Z,32.33
2023-03-12T21:14:12.381Z,31.93
2023-03-12T21:16:57.678Z,43.57
2023-03-12T21:19:43.217Z,12.97
2023-03-12T21:22:32.041Z,5.30
2023-03-12T21:25:17.554Z,5.20
2023-03-12T21:28:04.927Z,5.33
2023-03-12T21:30:50.392Z,5.17
2023-03-12T21:33:36.163Z,4.77
2023-03-12T21:36:21.667Z,4.83
2023-03-12T21:39:07.189Z,4.40
2023-03-12T21:41:52.546Z,5.00
2023-03-12T21:44:38.448Z,5.03
2023-03-12T21:47:23.889Z,4.13
2023-03-12T21:50:10.721Z,4.33
2023-03-12T21:52:55.773Z,4.83
2023-03-12T21:55:41.357Z,4.57
2023-03-12T21:58:28.035Z,4.33
2023-03-12T22:01:17.837Z,5.03
2023-03-12T22:04:03.129Z,4.30
2023-03-12T22:06:48.421Z,4.43
2023-03-12T22:09:33.730Z,4.20
2023-03-12T22:12:19.098Z,3.73
2023-03-12T22:15:06.715Z,3.87
2023-03-12T22:17:52.145Z,3.80
2023-03-12T22:20:37.368Z,4.07
2023-03-12T22:23:23.972Z,3.80
2023-03-12T22:26:09.340Z,3.70
2023-03-12T22:28:56.651Z,3.70
2023-03-12T22:31:41.668Z,3.73
2023-03-12T22:34:26.993Z,4.10
2023-03-12T22:37:12.182Z,4.37
2023-03-12T22:39:57.349Z,3.63
2023-03-12T22:42:49.297Z,3.80
2023-03-12T22:45:35.156Z,3.13
2023-03-12T22:48:20.560Z,3.30
2023-03-12T22:51:06.369Z,3.77
2023-03-12T22:53:53.043Z,3.30
2023-03-12T22:56:38.455Z,3.73
2023-03-12T22:59:23.754Z,3.50
2023-03-12T23:02:09.245Z,3.87
2023-03-12T23:04:54.391Z,3.30
2023-03-12T23:07:39.755Z,3.70
2023-03-12T23:10:25.371Z,3.53
2023-03-12T23:13:10.731Z,3.70
2023-03-12T23:16:01.639Z,3.23
2023-03-12T23:18:48.118Z,4.10
2023-03-12T23:21:33.398Z,3.40
2023-03-12T23:24:18.836Z,3.23
2023-03-12T23:27:04.372Z,3.53
2023-03-12T23:29:50.073Z,3.60
2023-03-12T23:32:35.457Z,3.30
2023-03-12T23:35:20.836Z,3.50
2023-03-12T23:38:06.489Z,2.90
2023-03-12T23:40:52.474Z,3.20
2023-03-12T23:43:38.149Z,3.13
2023-03-12T23:46:23.672Z,3.50
2023-03-12T23:49:08.888Z,3.30
2023-03-12T23:51:54.103Z,3.03
2023-03-12T23:54:39.704Z,3.67
2023-03-12T23:57:24.858Z,3.60
